sensor_id;sensor_type;location;lat;lon;timestamp;pressure;altitude;pressure_sealevel;temperature;humidity
33554;BME280;19885;42.208;24.952;2023-06-10T00:00:16;99299.59;;;19.99;93.67
33554;BME280;19885;42.208;24.952;2023-06-10T00:02:41;99297.50;;;20.07;93.36
33554;BME280;19885;42.208;24.952;2023-06-10T00:05:08;99305.53;;;20.04;93.35
33554;BME280;19885;42.208;24.952;2023-06-10T00:07:33;99298.63;;;20.01;93.55
33554;BME280;19885;42.208;24.952;2023-06-10T00:10:01;99288.69;;;20.06;92.91
33554;BME280;19885;42.208;24.952;2023-06-10T00:12:30;99293.13;;;20.06;93.09
33554;BME280;19885;42.208;24.952;2023-06-10T00:14:56;99299.56;;;20.20;92.60
33554;BME280;19885;42.208;24.952;2023-06-10T00:17:21;99298.84;;;20.17;92.60
33554;BME280;19885;42.208;24.952;2023-06-10T00:19:49;99295.91;;;20.24;91.02
33554;BME280;19885;42.208;24.952;2023-06-10T00:22:15;99302.91;;;20.25;89.50
33554;BME280;19885;42.208;24.952;2023-06-10T00:24:43;99294.22;;;20.22;89.75
33554;BME280;19885;42.208;24.952;2023-06-10T00:27:08;99297.75;;;20.22;90.28
33554;BME280;19885;42.208;24.952;2023-06-10T00:29:34;99300.44;;;20.21;91.00
33554;BME280;19885;42.208;24.952;2023-06-10T00:32:00;99301.69;;;20.12;91.03
33554;BME280;19885;42.208;24.952;2023-06-10T00:34:25;99305.53;;;20.04;91.73
33554;BME280;19885;42.208;24.952;2023-06-10T00:36:50;99309.06;;;20.04;90.09
33554;BME280;19885;42.208;24.952;2023-06-10T00:39:16;99304.38;;;20.11;90.31
33554;BME280;19885;42.208;24.952;2023-06-10T00:41:44;99303.47;;;20.12;89.65
33554;BME280;19885;42.208;24.952;2023-06-10T00:44:09;99304.44;;;20.09;89.82
33554;BME280;19885;42.208;24.952;2023-06-10T00:46:34;99297.97;;;19.94;90.88
33554;BME280;19885;42.208;24.952;2023-06-10T00:49:00;99293.38;;;20.00;91.19
33554;BME280;19885;42.208;24.952;2023-06-10T00:51:25;99292.56;;;19.98;91.54
33554;BME280;19885;42.208;24.952;2023-06-10T00:53:51;99286.84;;;19.86;91.35
33554;BME280;19885;42.208;24.952;2023-06-10T00:56:17;99296.28;;;19.93;90.34
33554;BME280;19885;42.208;24.952;2023-06-10T00:58:45;99296.00;;;20.00;89.19
33554;BME280;19885;42.208;24.952;2023-06-10T01:01:10;99304.19;;;19.93;89.60
33554;BME280;19885;42.208;24.952;2023-06-10T01:03:36;99308.44;;;19.98;90.28
33554;BME280;19885;42.208;24.952;2023-06-10T01:11:19;99284.75;;;19.73;91.83
33554;BME280;19885;42.208;24.952;2023-06-10T01:13:46;99283.22;;;19.67;92.39
33554;BME280;19885;42.208;24.952;2023-06-10T01:16:13;99284.94;;;19.68;92.52
33554;BME280;19885;42.208;24.952;2023-06-10T01:18:39;99276.31;;;19.63;93.04
33554;BME280;19885;42.208;24.952;2023-06-10T01:21:05;99278.28;;;19.58;92.96
33554;BME280;19885;42.208;24.952;2023-06-10T01:23:32;99280.69;;;19.64;92.87
33554;BME280;19885;42.208;24.952;2023-06-10T01:26:05;99279.91;;;19.62;92.11
33554;BME280;19885;42.208;24.952;2023-06-10T01:28:38;99285.38;;;19.58;92.30
33554;BME280;19885;42.208;24.952;2023-06-10T01:31:10;99287.16;;;19.57;92.19
33554;BME280;19885;42.208;24.952;2023-06-10T01:33:39;99290.38;;;19.42;93.55
33554;BME280;19885;42.208;24.952;2023-06-10T01:36:09;99297.03;;;19.52;92.09
33554;BME280;19885;42.208;24.952;2023-06-10T01:38:43;99289.00;;;19.55;91.46
33554;BME280;19885;42.208;24.952;2023-06-10T01:41:09;99297.03;;;19.52;91.55
33554;BME280;19885;42.208;24.952;2023-06-10T01:43:36;99291.06;;;19.47;91.58
33554;BME280;19885;42.208;24.952;2023-06-10T01:46:02;99302.69;;;19.43;90.98
33554;BME280;19885;42.208;24.952;2023-06-10T01:48:27;99301.94;;;19.40;90.84
33554;BME280;19885;42.208;24.952;2023-06-10T01:50:53;99300.81;;;19.45;90.56
33554;BME280;19885;42.208;24.952;2023-06-10T01:53:20;99295.00;;;19.37;90.15
33554;BME280;19885;42.208;24.952;2023-06-10T01:55:48;99293.16;;;19.39;90.45
33554;BME280;19885;42.208;24.952;2023-06-10T01:58:13;99300.34;;;19.34;90.32
33554;BME280;19885;42.208;24.952;2023-06-10T02:00:39;99302.13;;;19.35;91.42
33554;BME280;19885;42.208;24.952;2023-06-10T02:03:04;99301.97;;;19.38;90.84
33554;BME280;19885;42.208;24.952;2023-06-10T02:05:32;99307.25;;;19.38;91.64
33554;BME280;19885;42.208;24.952;2023-06-10T02:07:59;99309.56;;;19.47;90.67
33554;BME280;19885;42.208;24.952;2023-06-10T02:10:25;99306.81;;;19.50;90.63
33554;BME280;19885;42.208;24.952;2023-06-10T02:12:56;99306.53;;;19.58;90.07
33554;BME280;19885;42.208;24.952;2023-06-10T02:15:21;99311.03;;;19.54;89.49
33554;BME280;19885;42.208;24.952;2023-06-10T02:17:46;99318.34;;;19.48;89.93
33554;BME280;19885;42.208;24.952;2023-06-10T02:20:14;99320.81;;;19.52;90.55
33554;BME280;19885;42.208;24.952;2023-06-10T02:22:40;99312.09;;;19.50;90.54
33554;BME280;19885;42.208;24.952;2023-06-10T02:25:05;99316.59;;;19.48;90.52
33554;BME280;19885;42.208;24.952;2023-06-10T02:27:31;99310.50;;;19.46;90.81
33554;BME280;19885;42.208;24.952;2023-06-10T02:29:59;99309.81;;;19.41;91.27
33554;BME280;19885;42.208;24.952;2023-06-10T02:32:24;99322.34;;;19.35;90.88
33554;BME280;19885;42.208;24.952;2023-06-10T02:34:50;99325.38;;;19.24;91.95
33554;BME280;19885;42.208;24.952;2023-06-10T02:37:18;99326.47;;;19.18;92.36
33554;BME280;19885;42.208;24.952;2023-06-10T02:39:43;99330.78;;;19.21;91.93
33554;BME280;19885;42.208;24.952;2023-06-10T02:42:09;99326.47;;;19.18;92.15
33554;BME280;19885;42.208;24.952;2023-06-10T02:44:35;99321.81;;;19.02;92.63
33554;BME280;19885;42.208;24.952;2023-06-10T02:47:03;99335.66;;;19.08;92.77
33554;BME280;19885;42.208;24.952;2023-06-10T02:49:28;99331.34;;;19.06;93.25
33554;BME280;19885;42.208;24.952;2023-06-10T02:51:56;99338.25;;;19.10;93.17
33554;BME280;19885;42.208;24.952;2023-06-10T02:54:22;99329.84;;;19.22;93.23
33554;BME280;19885;42.208;24.952;2023-06-10T02:56:48;99328.78;;;19.28;92.41
33554;BME280;19885;42.208;24.952;2023-06-10T02:59:13;99328.97;;;19.23;92.62
33554;BME280;19885;42.208;24.952;2023-06-10T03:01:39;99339.53;;;19.23;93.36
33554;BME280;19885;42.208;24.952;2023-06-10T03:04:04;99336.81;;;19.24;93.24
33554;BME280;19885;42.208;24.952;2023-06-10T03:06:32;99331.06;;;19.38;92.69
33554;BME280;19885;42.208;24.952;2023-06-10T03:09:01;99329.81;;;19.48;91.64
33554;BME280;19885;42.208;24.952;2023-06-10T03:11:26;99334.94;;;19.51;91.74
33554;BME280;19885;42.208;24.952;2023-06-10T03:13:54;99336.44;;;19.58;91.43
33554;BME280;19885;42.208;24.952;2023-06-10T03:16:20;99340.47;;;19.68;91.15
33554;BME280;19885;42.208;24.952;2023-06-10T03:18:45;99337.56;;;19.74;90.89
33554;BME280;19885;42.208;24.952;2023-06-10T03:21:11;99335.63;;;19.79;90.63
33554;BME280;19885;42.208;24.952;2023-06-10T03:23:36;99343.56;;;19.79;90.71
33554;BME280;19885;42.208;24.952;2023-06-10T03:26:02;99342.88;;;19.74;90.48
33554;BME280;19885;42.208;24.952;2023-06-10T03:28:27;99339.19;;;19.78;90.81
33554;BME280;19885;42.208;24.952;2023-06-10T03:30:52;99339.06;;;19.81;90.53
33554;BME280;19885;42.208;24.952;2023-06-10T03:33:17;99336.56;;;19.78;91.14
33554;BME280;19885;42.208;24.952;2023-06-10T03:35:43;99344.59;;;19.75;92.03
33554;BME280;19885;42.208;24.952;2023-06-10T03:38:08;99335.50;;;19.82;91.42
33554;BME280;19885;42.208;24.952;2023-06-10T03:40:34;99330.53;;;19.97;91.23
33554;BME280;19885;42.208;24.952;2023-06-10T03:43:01;99334.72;;;20.02;91.04
33554;BME280;19885;42.208;24.952;2023-06-10T03:45:27;99343.41;;;20.06;90.26
33554;BME280;19885;42.208;24.952;2023-06-10T03:47:53;99335.41;;;20.07;89.88
33554;BME280;19885;42.208;24.952;2023-06-10T03:50:18;99332.06;;;20.02;91.19
33554;BME280;19885;42.208;24.952;2023-06-10T03:52:43;99330.19;;;20.06;91.37
33554;BME280;19885;42.208;24.952;2023-06-10T03:55:10;99333.91;;;20.00;91.83
33554;BME280;19885;42.208;24.952;2023-06-10T03:57:36;99335.00;;;19.94;92.61
33554;BME280;19885;42.208;24.952;2023-06-10T04:00:04;99340.44;;;19.91;92.24
33554;BME280;19885;42.208;24.952;2023-06-10T04:02:37;99325.25;;;19.97;91.97
33554;BME280;19885;42.208;24.952;2023-06-10T04:05:02;99332.94;;;20.03;91.19
33554;BME280;19885;42.208;24.952;2023-06-10T04:07:28;99332.56;;;20.12;90.77
33554;BME280;19885;42.208;24.952;2023-06-10T04:09:53;99330.19;;;20.06;91.65
33554;BME280;19885;42.208;24.952;2023-06-10T04:12:21;99332.69;;;20.09;91.82
33554;BME280;19885;42.208;24.952;2023-06-10T04:14:46;99330.72;;;20.14;92.03
33554;BME280;19885;42.208;24.952;2023-06-10T04:17:11;99333.09;;;20.21;91.73
33554;BME280;19885;42.208;24.952;2023-06-10T04:19:39;99335.47;;;20.27;91.92
33554;BME280;19885;42.208;24.952;2023-06-10T04:22:06;99340.56;;;20.32;90.76
33554;BME280;19885;42.208;24.952;2023-06-10T04:24:32;99342.25;;;20.34;91.26
33554;BME280;19885;42.208;24.952;2023-06-10T04:26:57;99329.88;;;20.35;91.08
33554;BME280;19885;42.208;24.952;2023-06-10T04:29:23;99332.38;;;20.38;91.11
33554;BME280;19885;42.208;24.952;2023-06-10T04:31:49;99329.72;;;20.38;91.36
33554;BME280;19885;42.208;24.952;2023-06-10T04:34:14;99326.97;;;20.41;91.48
33554;BME280;19885;42.208;24.952;2023-06-10T04:36:39;99329.72;;;20.38;90.89
33554;BME280;19885;42.208;24.952;2023-06-10T04:39:05;99334.72;;;20.45;91.05
33554;BME280;19885;42.208;24.952;2023-06-10T04:41:36;99337.88;;;20.53;89.41
33554;BME280;19885;42.208;24.952;2023-06-10T04:44:01;99329.09;;;20.53;90.25
33554;BME280;19885;42.208;24.952;2023-06-10T04:46:29;99328.16;;;20.54;90.39
33554;BME280;19885;42.208;24.952;2023-06-10T04:48:56;99330.56;;;20.60;90.92
33554;BME280;19885;42.208;24.952;2023-06-10T04:51:22;99333.16;;;20.61;91.29
33554;BME280;19885;42.208;24.952;2023-06-10T04:53:47;99326.59;;;20.70;90.54
33554;BME280;19885;42.208;24.952;2023-06-10T04:56:12;99336.84;;;20.57;91.56
33554;BME280;19885;42.208;24.952;2023-06-10T04:58:39;99326.50;;;20.51;93.20
33554;BME280;19885;42.208;24.952;2023-06-10T05:01:04;99328.56;;;20.65;91.89
33554;BME280;19885;42.208;24.952;2023-06-10T05:03:30;99327.25;;;20.55;91.54
33554;BME280;19885;42.208;24.952;2023-06-10T05:05:57;99323.16;;;20.68;91.59
33554;BME280;19885;42.208;24.952;2023-06-10T05:08:25;99332.66;;;20.72;92.29
33554;BME280;19885;42.208;24.952;2023-06-10T05:10:51;99329.00;;;20.76;92.48
33554;BME280;19885;42.208;24.952;2023-06-10T05:13:16;99331.47;;;20.59;93.53
33554;BME280;19885;42.208;24.952;2023-06-10T05:15:42;99332.47;;;20.77;92.48
33554;BME280;19885;42.208;24.952;2023-06-10T05:18:09;99330.09;;;20.29;93.70
33554;BME280;19885;42.208;24.952;2023-06-10T05:20:35;99334.41;;;20.31;94.11
33554;BME280;19885;42.208;24.952;2023-06-10T05:23:00;99333.06;;;20.43;94.46
33554;BME280;19885;42.208;24.952;2023-06-10T05:25:26;99334.25;;;20.13;95.79
33554;BME280;19885;42.208;24.952;2023-06-10T05:27:51;99328.19;;;20.11;96.67
33554;BME280;19885;42.208;24.952;2023-06-10T05:30:16;99333.91;;;20.43;95.66
33554;BME280;19885;42.208;24.952;2023-06-10T05:32:43;99331.00;;;20.49;95.75
33554;BME280;19885;42.208;24.952;2023-06-10T05:35:08;99324.22;;;20.64;94.10
33554;BME280;19885;42.208;24.952;2023-06-10T05:37:34;99322.09;;;20.09;95.78
33554;BME280;19885;42.208;24.952;2023-06-10T05:40:02;99328.03;;;20.37;94.51
33554;BME280;19885;42.208;24.952;2023-06-10T05:42:27;99327.34;;;20.74;93.98
33554;BME280;19885;42.208;24.952;2023-06-10T05:44:52;99334.00;;;20.62;95.80
33554;BME280;19885;42.208;24.952;2023-06-10T05:47:18;99329.50;;;20.84;93.73
33554;BME280;19885;42.208;24.952;2023-06-10T05:49:43;99326.66;;;21.09;90.57
33554;BME280;19885;42.208;24.952;2023-06-10T05:52:10;99321.41;;;21.27;90.53
33554;BME280;19885;42.208;24.952;2023-06-10T05:54:36;99324.94;;;21.28;90.54
33554;BME280;19885;42.208;24.952;2023-06-10T05:57:01;99324.88;;;21.09;89.48
33554;BME280;19885;42.208;24.952;2023-06-10T05:59:26;99327.38;;;21.33;91.84
33554;BME280;19885;42.208;24.952;2023-06-10T06:01:52;99331.38;;;21.41;91.22
33554;BME280;19885;42.208;24.952;2023-06-10T06:04:17;99335.44;;;21.29;91.30
33554;BME280;19885;42.208;24.952;2023-06-10T06:06:42;99339.88;;;21.29;91.40
33554;BME280;19885;42.208;24.952;2023-06-10T06:09:08;99342.78;;;21.04;92.76
33554;BME280;19885;42.208;24.952;2023-06-10T06:11:33;99347.16;;;21.05;93.67
33554;BME280;19885;42.208;24.952;2023-06-10T06:13:59;99346.97;;;21.28;91.65
33554;BME280;19885;42.208;24.952;2023-06-10T06:16:24;99348.16;;;21.42;91.09
33554;BME280;19885;42.208;24.952;2023-06-10T06:18:50;99348.44;;;20.95;91.96
33554;BME280;19885;42.208;24.952;2023-06-10T06:21:15;99341.31;;;21.36;89.50
33554;BME280;19885;42.208;24.952;2023-06-10T06:23:40;99351.50;;;21.45;86.57
33554;BME280;19885;42.208;24.952;2023-06-10T06:26:06;99341.41;;;21.35;87.83
33554;BME280;19885;42.208;24.952;2023-06-10T06:28:31;99334.13;;;21.40;87.62
33554;BME280;19885;42.208;24.952;2023-06-10T06:30:56;99350.78;;;21.23;89.21
33554;BME280;19885;42.208;24.952;2023-06-10T06:33:22;99341.28;;;21.75;86.60
33554;BME280;19885;42.208;24.952;2023-06-10T06:35:47;99346.91;;;21.87;84.52
33554;BME280;19885;42.208;24.952;2023-06-10T06:38:12;99346.44;;;21.59;84.35
33554;BME280;19885;42.208;24.952;2023-06-10T06:40:38;99334.53;;;21.30;86.56
33554;BME280;19885;42.208;24.952;2023-06-10T06:43:03;99332.66;;;21.70;85.14
33554;BME280;19885;42.208;24.952;2023-06-10T06:45:28;99330.38;;;21.99;82.81
33554;BME280;19885;42.208;24.952;2023-06-10T06:47:54;99330.59;;;21.95;83.52
33554;BME280;19885;42.208;24.952;2023-06-10T06:50:20;99326.94;;;21.79;84.70
33554;BME280;19885;42.208;24.952;2023-06-10T06:52:46;99321.34;;;21.66;86.07
33554;BME280;19885;42.208;24.952;2023-06-10T06:55:11;99331.75;;;21.71;85.38
33554;BME280;19885;42.208;24.952;2023-06-10T06:57:36;99335.28;;;21.90;84.06
33554;BME280;19885;42.208;24.952;2023-06-10T07:00:02;99331.13;;;22.03;85.31
33554;BME280;19885;42.208;24.952;2023-06-10T07:02:28;99325.09;;;21.62;83.03
33554;BME280;19885;42.208;24.952;2023-06-10T07:04:53;99320.56;;;21.46;85.17
33554;BME280;19885;42.208;24.952;2023-06-10T07:07:21;99325.19;;;21.22;82.89
33554;BME280;19885;42.208;24.952;2023-06-10T07:09:46;99317.44;;;21.17;85.78
33554;BME280;19885;42.208;24.952;2023-06-10T07:12:11;99318.72;;;21.85;84.63
33554;BME280;19885;42.208;24.952;2023-06-10T07:14:37;99309.75;;;22.23;82.64
33554;BME280;19885;42.208;24.952;2023-06-10T07:17:02;99313.97;;;22.27;81.57
33554;BME280;19885;42.208;24.952;2023-06-10T07:19:27;99314.13;;;22.24;80.36
33554;BME280;19885;42.208;24.952;2023-06-10T07:21:53;99306.59;;;22.51;81.34
33554;BME280;19885;42.208;24.952;2023-06-10T07:24:18;99310.84;;;22.53;80.61
33554;BME280;19885;42.208;24.952;2023-06-10T07:26:45;99305.88;;;22.47;79.44
33554;BME280;19885;42.208;24.952;2023-06-10T07:29:10;99297.78;;;22.67;81.89
33554;BME280;19885;42.208;24.952;2023-06-10T07:31:35;99300.16;;;23.06;80.41
33554;BME280;19885;42.208;24.952;2023-06-10T07:34:01;99299.28;;;23.06;77.40
33554;BME280;19885;42.208;24.952;2023-06-10T07:36:26;99233.53;;;22.42;76.08
33554;BME280;19885;42.208;24.952;2023-06-10T07:38:54;99299.06;;;23.43;77.28
33554;BME280;19885;42.208;24.952;2023-06-10T07:41:19;99303.53;;;23.58;77.04
33554;BME280;19885;42.208;24.952;2023-06-10T07:43:45;99299.41;;;23.37;80.61
33554;BME280;19885;42.208;24.952;2023-06-10T07:46:10;99295.22;;;23.80;77.21
33554;BME280;19885;42.208;24.952;2023-06-10T07:48:36;99303.72;;;23.55;75.46
33554;BME280;19885;42.208;24.952;2023-06-10T07:51:01;99293.22;;;23.99;80.21
33554;BME280;19885;42.208;24.952;2023-06-10T07:53:26;99302.69;;;24.04;75.96
33554;BME280;19885;42.208;24.952;2023-06-10T07:55:53;99300.97;;;24.19;72.97
33554;BME280;19885;42.208;24.952;2023-06-10T07:58:18;99299.38;;;24.31;74.59
33554;BME280;19885;42.208;24.952;2023-06-10T08:00:43;99292.03;;;24.04;78.62
33554;BME280;19885;42.208;24.952;2023-06-10T08:03:09;99300.75;;;24.38;79.79
33554;BME280;19885;42.208;24.952;2023-06-10T08:05:34;99289.50;;;24.62;73.81
33554;BME280;19885;42.208;24.952;2023-06-10T08:08:00;99299.13;;;24.65;74.06
33554;BME280;19885;42.208;24.952;2023-06-10T08:10:25;99295.97;;;23.97;74.49
33554;BME280;19885;42.208;24.952;2023-06-10T08:12:50;99291.69;;;24.10;75.99
33554;BME280;19885;42.208;24.952;2023-06-10T08:15:15;99286.81;;;24.48;73.69
33554;BME280;19885;42.208;24.952;2023-06-10T08:17:41;99283.81;;;24.39;74.67
33554;BME280;19885;42.208;24.952;2023-06-10T08:20:06;99290.59;;;24.15;76.14
33554;BME280;19885;42.208;24.952;2023-06-10T08:22:32;99293.59;;;24.08;72.53
33554;BME280;19885;42.208;24.952;2023-06-10T08:24:57;99286.94;;;24.61;78.05
33554;BME280;19885;42.208;24.952;2023-06-10T08:27:22;99279.41;;;24.97;75.47
33554;BME280;19885;42.208;24.952;2023-06-10T08:29:48;99288.00;;;25.44;71.40
33554;BME280;19885;42.208;24.952;2023-06-10T08:32:13;99282.28;;;25.36;70.29
33554;BME280;19885;42.208;24.952;2023-06-10T08:34:38;99276.38;;;25.03;73.61
33554;BME280;19885;42.208;24.952;2023-06-10T08:37:04;99278.28;;;25.29;68.40
33554;BME280;19885;42.208;24.952;2023-06-10T08:39:29;99279.03;;;25.31;71.00
33554;BME280;19885;42.208;24.952;2023-06-10T08:44:29;99284.81;;;25.80;71.37
33554;BME280;19885;42.208;24.952;2023-06-10T08:46:56;99278.13;;;25.87;62.64
33554;BME280;19885;42.208;24.952;2023-06-10T08:49:23;99279.09;;;25.99;63.95
33554;BME280;19885;42.208;24.952;2023-06-10T08:51:51;99271.38;;;25.68;63.16
33554;BME280;19885;42.208;24.952;2023-06-10T08:54:25;99270.59;;;25.80;62.71
33554;BME280;19885;42.208;24.952;2023-06-10T08:56:50;99265.25;;;25.80;57.44
33554;BME280;19885;42.208;24.952;2023-06-10T08:59:16;99263.56;;;26.05;56.73
33554;BME280;19885;42.208;24.952;2023-06-10T09:01:42;99262.94;;;25.88;57.14
33554;BME280;19885;42.208;24.952;2023-06-10T09:04:07;99258.16;;;25.38;64.48
33554;BME280;19885;42.208;24.952;2023-06-10T09:06:33;99253.88;;;25.49;62.11
33554;BME280;19885;42.208;24.952;2023-06-10T09:08:59;99257.34;;;26.05;58.44
33554;BME280;19885;42.208;24.952;2023-06-10T09:11:24;99248.53;;;26.17;56.55
33554;BME280;19885;42.208;24.952;2023-06-10T09:13:50;99252.25;;;26.41;63.14
33554;BME280;19885;42.208;24.952;2023-06-10T09:16:16;99241.97;;;26.35;55.21
33554;BME280;19885;42.208;24.952;2023-06-10T09:18:42;99240.63;;;26.67;61.28
33554;BME280;19885;42.208;24.952;2023-06-10T09:21:07;99238.94;;;26.66;60.46
33554;BME280;19885;42.208;24.952;2023-06-10T09:23:33;99245.22;;;26.65;54.65
33554;BME280;19885;42.208;24.952;2023-06-10T09:25:58;99240.25;;;26.86;57.30
33554;BME280;19885;42.208;24.952;2023-06-10T09:28:24;99234.69;;;26.89;51.10
33554;BME280;19885;42.208;24.952;2023-06-10T09:30:49;99235.09;;;26.96;50.55
33554;BME280;19885;42.208;24.952;2023-06-10T09:33:15;99234.56;;;27.16;54.74
33554;BME280;19885;42.208;24.952;2023-06-10T09:35:47;99237.53;;;26.73;50.74
33554;BME280;19885;42.208;24.952;2023-06-10T09:38:14;99233.63;;;26.92;53.29
33554;BME280;19885;42.208;24.952;2023-06-10T09:43:15;99234.75;;;27.13;48.14
33554;BME280;19885;42.208;24.952;2023-06-10T09:45:40;99229.22;;;26.91;48.60
33554;BME280;19885;42.208;24.952;2023-06-10T09:48:06;99226.66;;;26.76;53.22
33554;BME280;19885;42.208;24.952;2023-06-10T09:50:37;99231.59;;;26.82;52.29
33554;BME280;19885;42.208;24.952;2023-06-10T09:53:06;99235.91;;;26.58;52.53
33554;BME280;19885;42.208;24.952;2023-06-10T09:55:33;99237.75;;;26.70;52.50
33554;BME280;19885;42.208;24.952;2023-06-10T09:57:58;99234.19;;;26.45;55.08
33554;BME280;19885;42.208;24.952;2023-06-10T10:00:23;99230.63;;;26.44;54.47
33554;BME280;19885;42.208;24.952;2023-06-10T10:02:51;99236.13;;;26.55;55.09
33554;BME280;19885;42.208;24.952;2023-06-10T10:05:18;99238.81;;;26.55;57.13
33554;BME280;19885;42.208;24.952;2023-06-10T10:07:44;99239.22;;;26.49;54.36
33554;BME280;19885;42.208;24.952;2023-06-10T10:10:09;99238.38;;;26.09;52.65
33554;BME280;19885;42.208;24.952;2023-06-10T10:12:36;99237.22;;;26.26;53.79
33554;BME280;19885;42.208;24.952;2023-06-10T10:15:01;99239.50;;;26.32;54.23
33554;BME280;19885;42.208;24.952;2023-06-10T10:17:27;99231.69;;;26.29;53.37
33554;BME280;19885;42.208;24.952;2023-06-10T10:20:00;99237.72;;;26.45;54.04
33554;BME280;19885;42.208;24.952;2023-06-10T10:22:29;99235.34;;;26.28;53.14
33554;BME280;19885;42.208;24.952;2023-06-10T10:24:57;99234.25;;;26.18;56.75
33554;BME280;19885;42.208;24.952;2023-06-10T10:27:28;99234.56;;;26.26;57.50
33554;BME280;19885;42.208;24.952;2023-06-10T10:29:54;99231.94;;;26.39;56.42
33554;BME280;19885;42.208;24.952;2023-06-10T10:32:21;99237.16;;;26.28;53.98
33554;BME280;19885;42.208;24.952;2023-06-10T10:37:35;99234.28;;;26.56;58.81
33554;BME280;19885;42.208;24.952;2023-06-10T10:40:01;99222.34;;;26.61;55.13
33554;BME280;19885;42.208;24.952;2023-06-10T10:42:28;99219.59;;;26.88;53.06
33554;BME280;19885;42.208;24.952;2023-06-10T10:44:53;99216.22;;;27.22;55.22
33554;BME280;19885;42.208;24.952;2023-06-10T10:47:22;99217.47;;;27.54;47.18
33554;BME280;19885;42.208;24.952;2023-06-10T10:49:52;99223.50;;;27.69;49.45
33554;BME280;19885;42.208;24.952;2023-06-10T10:52:18;99223.28;;;27.72;47.40
33554;BME280;19885;42.208;24.952;2023-06-10T10:54:44;99221.91;;;27.43;44.52
33554;BME280;19885;42.208;24.952;2023-06-10T11:02:32;99223.56;;;26.82;47.25
33554;BME280;19885;42.208;24.952;2023-06-10T11:04:57;99217.22;;;26.83;46.27
33554;BME280;19885;42.208;24.952;2023-06-10T11:07:24;99220.97;;;26.68;47.03
33554;BME280;19885;42.208;24.952;2023-06-10T11:09:59;99213.78;;;26.56;49.27
33554;BME280;19885;42.208;24.952;2023-06-10T11:12:25;99213.22;;;26.51;47.24
33554;BME280;19885;42.208;24.952;2023-06-10T11:14:54;99200.09;;;26.48;48.17
33554;BME280;19885;42.208;24.952;2023-06-10T11:17:20;99205.00;;;26.67;48.97
33554;BME280;19885;42.208;24.952;2023-06-10T11:19:45;99212.06;;;26.55;49.98
33554;BME280;19885;42.208;24.952;2023-06-10T11:22:15;99213.53;;;26.34;53.60
33554;BME280;19885;42.208;24.952;2023-06-10T11:24:42;99208.09;;;26.09;55.56
33554;BME280;19885;42.208;24.952;2023-06-10T11:27:18;99208.28;;;26.06;56.92
33554;BME280;19885;42.208;24.952;2023-06-10T11:32:32;99196.84;;;26.04;55.80
33554;BME280;19885;42.208;24.952;2023-06-10T11:34:58;99199.25;;;25.82;55.20
33554;BME280;19885;42.208;24.952;2023-06-10T11:37:23;99199.09;;;25.71;56.54
33554;BME280;19885;42.208;24.952;2023-06-10T11:39:54;99190.31;;;25.83;57.22
33554;BME280;19885;42.208;24.952;2023-06-10T11:42:21;99199.97;;;25.71;54.50
33554;BME280;19885;42.208;24.952;2023-06-10T11:44:53;99192.41;;;25.78;56.45
33554;BME280;19885;42.208;24.952;2023-06-10T11:47:19;99190.22;;;25.97;56.16
33554;BME280;19885;42.208;24.952;2023-06-10T11:49:45;99192.66;;;25.87;54.89
33554;BME280;19885;42.208;24.952;2023-06-10T11:52:10;99196.91;;;25.77;54.60
33554;BME280;19885;42.208;24.952;2023-06-10T11:54:36;99179.56;;;25.70;54.45
33554;BME280;19885;42.208;24.952;2023-06-10T11:57:01;99182.19;;;25.84;53.54
33554;BME280;19885;42.208;24.952;2023-06-10T11:59:28;99178.22;;;25.90;53.14
33554;BME280;19885;42.208;24.952;2023-06-10T12:01:54;99181.06;;;26.01;52.13
33554;BME280;19885;42.208;24.952;2023-06-10T12:04:19;99176.75;;;26.38;54.07
33554;BME280;19885;42.208;24.952;2023-06-10T12:06:48;99174.09;;;26.50;47.69
33554;BME280;19885;42.208;24.952;2023-06-10T12:09:18;99170.16;;;26.68;48.51
33554;BME280;19885;42.208;24.952;2023-06-10T12:11:43;99174.63;;;26.68;49.65
33554;BME280;19885;42.208;24.952;2023-06-10T12:14:09;99168.88;;;26.61;50.12
33554;BME280;19885;42.208;24.952;2023-06-10T12:16:34;99174.66;;;26.80;49.11
33554;BME280;19885;42.208;24.952;2023-06-10T12:19:03;99170.31;;;27.16;53.16
33554;BME280;19885;42.208;24.952;2023-06-10T12:21:29;99170.13;;;27.19;49.92
33554;BME280;19885;42.208;24.952;2023-06-10T12:26:42;99166.38;;;27.58;47.65
33554;BME280;19885;42.208;24.952;2023-06-10T12:29:19;99160.00;;;27.71;49.79
33554;BME280;19885;42.208;24.952;2023-06-10T12:34:36;99150.50;;;27.78;49.91
33554;BME280;19885;42.208;24.952;2023-06-10T12:37:03;99149.44;;;28.04;45.66
33554;BME280;19885;42.208;24.952;2023-06-10T12:39:29;99144.56;;;27.98;44.47
33554;BME280;19885;42.208;24.952;2023-06-10T12:41:54;99151.19;;;27.93;43.60
33554;BME280;19885;42.208;24.952;2023-06-10T12:44:32;99139.19;;;27.51;42.64
33554;BME280;19885;42.208;24.952;2023-06-10T12:46:59;99140.56;;;27.80;45.11
33554;BME280;19885;42.208;24.952;2023-06-10T12:49:25;99137.28;;;27.88;45.04
33554;BME280;19885;42.208;24.952;2023-06-10T12:51:51;99134.81;;;28.08;46.89
33554;BME280;19885;42.208;24.952;2023-06-10T12:54:17;99127.91;;;28.17;44.03
33554;BME280;19885;42.208;24.952;2023-06-10T12:56:42;99091.09;;;27.73;45.76
33554;BME280;19885;42.208;24.952;2023-06-10T12:59:07;99122.06;;;28.12;43.85
33554;BME280;19885;42.208;24.952;2023-06-10T13:01:33;99127.66;;;27.85;44.14
33554;BME280;19885;42.208;24.952;2023-06-10T13:03:58;99123.38;;;28.06;44.34
33554;BME280;19885;42.208;24.952;2023-06-10T13:06:23;99127.81;;;28.30;44.72
33554;BME280;19885;42.208;24.952;2023-06-10T13:08:49;99126.63;;;28.56;47.23
33554;BME280;19885;42.208;24.952;2023-06-10T13:11:16;99118.00;;;28.96;49.74